sensor_id;sensor_type;location;lat;lon;timestamp;temperature;humidity
26579;DHT22;14227;47.674;19.320;2022-07-22T00:00:11;31.20;21.00
26579;DHT22;14227;47.674;19.320;2022-07-22T00:02:37;31.10;21.00
26579;DHT22;14227;47.674;19.320;2022-07-22T00:05:03;31.10;21.00
26579;DHT22;14227;47.674;19.320;2022-07-22T00:07:29;31.00;20.90
26579;DHT22;14227;47.674;19.320;2022-07-22T00:09:55;31.00;20.90
26579;DHT22;14227;47.674;19.320;2022-07-22T00:12:21;31.00;21.10
26579;DHT22;14227;47.674;19.320;2022-07-22T00:14:46;30.90;21.00
26579;DHT22;14227;47.674;19.320;2022-07-22T00:17:12;30.90;21.00
26579;DHT22;14227;47.674;19.320;2022-07-22T00:19:38;30.80;21.00
26579;DHT22;14227;47.674;19.320;2022-07-22T00:22:04;30.80;21.30
26579;DHT22;14227;47.674;19.320;2022-07-22T00:24:29;30.70;21.10
26579;DHT22;14227;47.674;19.320;2022-07-22T00:26:55;30.70;21.10
26579;DHT22;14227;47.674;19.320;2022-07-22T00:29:21;30.70;21.10
26579;DHT22;14227;47.674;19.320;2022-07-22T00:31:47;30.70;21.50
26579;DHT22;14227;47.674;19.320;2022-07-22T00:34:12;30.60;21.30
26579;DHT22;14227;47.674;19.320;2022-07-22T00:36:39;30.60;21.30
26579;DHT22;14227;47.674;19.320;2022-07-22T00:39:04;30.60;21.60
26579;DHT22;14227;47.674;19.320;2022-07-22T00:41:30;30.60;21.70
26579;DHT22;14227;47.674;19.320;2022-07-22T00:44:01;30.50;21.90
26579;DHT22;14227;47.674;19.320;2022-07-22T00:46:28;30.50;22.00
26579;DHT22;14227;47.674;19.320;2022-07-22T00:48:57;30.50;22.00
26579;DHT22;14227;47.674;19.320;2022-07-22T00:51:25;30.40;22.10
26579;DHT22;14227;47.674;19.320;2022-07-22T00:53:52;30.40;22.20
26579;DHT22;14227;47.674;19.320;2022-07-22T00:56:19;30.30;22.30
26579;DHT22;14227;47.674;19.320;2022-07-22T00:58:46;30.30;22.40
26579;DHT22;14227;47.674;19.320;2022-07-22T01:01:12;30.30;22.50
26579;DHT22;14227;47.674;19.320;2022-07-22T01:03:38;30.30;22.50
26579;DHT22;14227;47.674;19.320;2022-07-22T01:06:04;30.20;22.40
26579;DHT22;14227;47.674;19.320;2022-07-22T01:08:32;30.20;22.50
26579;DHT22;14227;47.674;19.320;2022-07-22T01:11:13;30.10;22.80
26579;DHT22;14227;47.674;19.320;2022-07-22T01:13:39;30.10;23.30
26579;DHT22;14227;47.674;19.320;2022-07-22T01:16:06;30.00;22.70
26579;DHT22;14227;47.674;19.320;2022-07-22T01:18:33;30.00;22.90
26579;DHT22;14227;47.674;19.320;2022-07-22T01:20:59;30.00;23.00
26579;DHT22;14227;47.674;19.320;2022-07-22T01:23:25;30.00;22.90
26579;DHT22;14227;47.674;19.320;2022-07-22T01:25:51;29.90;23.10
26579;DHT22;14227;47.674;19.320;2022-07-22T01:28:17;29.90;23.00
26579;DHT22;14227;47.674;19.320;2022-07-22T01:30:42;29.90;23.00
26579;DHT22;14227;47.674;19.320;2022-07-22T01:33:08;29.80;23.10
26579;DHT22;14227;47.674;19.320;2022-07-22T01:35:34;29.70;23.00
26579;DHT22;14227;47.674;19.320;2022-07-22T01:37:59;29.70;22.90
26579;DHT22;14227;47.674;19.320;2022-07-22T01:40:25;29.60;22.90
26579;DHT22;14227;47.674;19.320;2022-07-22T01:42:51;29.60;23.20
26579;DHT22;14227;47.674;19.320;2022-07-22T01:45:17;29.60;23.20
26579;DHT22;14227;47.674;19.320;2022-07-22T01:47:43;29.50;23.20
26579;DHT22;14227;47.674;19.320;2022-07-22T01:50:10;29.50;23.30
26579;DHT22;14227;47.674;19.320;2022-07-22T01:52:38;29.40;23.50
26579;DHT22;14227;47.674;19.320;2022-07-22T01:55:05;29.40;23.50
26579;DHT22;14227;47.674;19.320;2022-07-22T01:57:31;29.40;23.40
26579;DHT22;14227;47.674;19.320;2022-07-22T01:59:57;29.40;23.30
26579;DHT22;14227;47.674;19.320;2022-07-22T02:02:25;29.40;23.30
26579;DHT22;14227;47.674;19.320;2022-07-22T02:04:51;29.30;23.40
26579;DHT22;14227;47.674;19.320;2022-07-22T02:07:16;29.30;23.40
26579;DHT22;14227;47.674;19.320;2022-07-22T02:09:42;29.20;23.30
26579;DHT22;14227;47.674;19.320;2022-07-22T02:12:08;29.20;23.30
26579;DHT22;14227;47.674;19.320;2022-07-22T02:14:34;29.20;23.40
26579;DHT22;14227;47.674;19.320;2022-07-22T02:16:59;29.20;23.40
26579;DHT22;14227;47.674;19.320;2022-07-22T02:19:25;29.20;23.40
26579;DHT22;14227;47.674;19.320;2022-07-22T02:21:51;29.10;23.50
26579;DHT22;14227;47.674;19.320;2022-07-22T02:24:16;29.10;23.60
26579;DHT22;14227;47.674;19.320;2022-07-22T02:26:42;29.10;23.80
26579;DHT22;14227;47.674;19.320;2022-07-22T02:29:08;29.00;24.20
26579;DHT22;14227;47.674;19.320;2022-07-22T02:31:33;29.00;24.40
26579;DHT22;14227;47.674;19.320;2022-07-22T02:33:59;29.00;24.50
26579;DHT22;14227;47.674;19.320;2022-07-22T02:36:25;28.90;24.40
26579;DHT22;14227;47.674;19.320;2022-07-22T02:38:51;28.90;24.50
26579;DHT22;14227;47.674;19.320;2022-07-22T02:41:17;28.80;24.40
26579;DHT22;14227;47.674;19.320;2022-07-22T02:43:42;28.80;24.40
26579;DHT22;14227;47.674;19.320;2022-07-22T02:46:08;28.80;24.40
26579;DHT22;14227;47.674;19.320;2022-07-22T02:48:34;28.70;24.30
26579;DHT22;14227;47.674;19.320;2022-07-22T02:50:59;28.70;24.30
26579;DHT22;14227;47.674;19.320;2022-07-22T02:53:25;28.60;24.30
26579;DHT22;14227;47.674;19.320;2022-07-22T02:55:51;28.60;24.30
26579;DHT22;14227;47.674;19.320;2022-07-22T02:58:16;28.60;24.30
26579;DHT22;14227;47.674;19.320;2022-07-22T03:00:45;28.60;24.30
26579;DHT22;14227;47.674;19.320;2022-07-22T03:03:10;28.50;24.20
26579;DHT22;14227;47.674;19.320;2022-07-22T03:05:36;28.50;24.20
26579;DHT22;14227;47.674;19.320;2022-07-22T03:08:02;28.40;24.20
26579;DHT22;14227;47.674;19.320;2022-07-22T03:10:27;28.40;24.20
26579;DHT22;14227;47.674;19.320;2022-07-22T03:12:53;28.40;24.40
26579;DHT22;14227;47.674;19.320;2022-07-22T03:15:19;28.40;24.70
26579;DHT22;14227;47.674;19.320;2022-07-22T03:17:45;28.30;24.60
26579;DHT22;14227;47.674;19.320;2022-07-22T03:20:11;28.30;24.90
26579;DHT22;14227;47.674;19.320;2022-07-22T03:22:36;28.30;24.90
26579;DHT22;14227;47.674;19.320;2022-07-22T03:25:03;28.20;24.90
26579;DHT22;14227;47.674;19.320;2022-07-22T03:27:29;28.20;24.70
26579;DHT22;14227;47.674;19.320;2022-07-22T03:29:55;28.20;24.70
26579;DHT22;14227;47.674;19.320;2022-07-22T03:32:21;28.20;24.70
26579;DHT22;14227;47.674;19.320;2022-07-22T03:34:46;28.10;24.90
26579;DHT22;14227;47.674;19.320;2022-07-22T03:37:12;28.10;24.90
26579;DHT22;14227;47.674;19.320;2022-07-22T03:39:38;28.00;25.00
26579;DHT22;14227;47.674;19.320;2022-07-22T03:42:04;28.00;25.00
26579;DHT22;14227;47.674;19.320;2022-07-22T03:44:30;28.00;25.20
26579;DHT22;14227;47.674;19.320;2022-07-22T03:46:55;28.00;25.40
26579;DHT22;14227;47.674;19.320;2022-07-22T03:49:21;27.90;25.40
26579;DHT22;14227;47.674;19.320;2022-07-22T03:51:50;28.00;25.50
26579;DHT22;14227;47.674;19.320;2022-07-22T03:54:16;27.90;25.50
26579;DHT22;14227;47.674;19.320;2022-07-22T03:56:41;28.00;25.50
26579;DHT22;14227;47.674;19.320;2022-07-22T03:59:07;27.90;25.40
26579;DHT22;14227;47.674;19.320;2022-07-22T04:01:33;27.90;25.50
26579;DHT22;14227;47.674;19.320;2022-07-22T04:03:58;27.90;25.60
26579;DHT22;14227;47.674;19.320;2022-07-22T04:06:24;27.90;25.80
26579;DHT22;14227;47.674;19.320;2022-07-22T04:08:50;27.80;25.40
26579;DHT22;14227;47.674;19.320;2022-07-22T04:11:16;27.70;25.60
26579;DHT22;14227;47.674;19.320;2022-07-22T04:13:41;27.80;25.70
26579;DHT22;14227;47.674;19.320;2022-07-22T04:16:07;27.80;26.20
26579;DHT22;14227;47.674;19.320;2022-07-22T04:18:32;27.80;26.50
26579;DHT22;14227;47.674;19.320;2022-07-22T04:20:59;27.70;26.90
26579;DHT22;14227;47.674;19.320;2022-07-22T04:23:24;27.70;27.20
26579;DHT22;14227;47.674;19.320;2022-07-22T04:25:50;27.70;27.30
26579;DHT22;14227;47.674;19.320;2022-07-22T04:28:16;27.70;27.00
26579;DHT22;14227;47.674;19.320;2022-07-22T04:30:42;27.70;27.40
26579;DHT22;14227;47.674;19.320;2022-07-22T04:33:08;27.70;27.50
26579;DHT22;14227;47.674;19.320;2022-07-22T04:35:34;27.60;27.70
26579;DHT22;14227;47.674;19.320;2022-07-22T04:37:59;27.60;27.40
26579;DHT22;14227;47.674;19.320;2022-07-22T04:40:25;27.60;27.60
26579;DHT22;14227;47.674;19.320;2022-07-22T04:42:51;27.50;28.20
26579;DHT22;14227;47.674;19.320;2022-07-22T04:45:17;27.50;28.30
26579;DHT22;14227;47.674;19.320;2022-07-22T04:47:42;27.50;28.30
26579;DHT22;14227;47.674;19.320;2022-07-22T04:50:08;27.50;28.30
26579;DHT22;14227;47.674;19.320;2022-07-22T04:52:34;27.40;28.20
26579;DHT22;14227;47.674;19.320;2022-07-22T04:55:00;27.40;28.30
26579;DHT22;14227;47.674;19.320;2022-07-22T04:57:25;27.40;28.30
26579;DHT22;14227;47.674;19.320;2022-07-22T04:59:52;27.40;29.10
26579;DHT22;14227;47.674;19.320;2022-07-22T05:02:18;27.40;29.10
26579;DHT22;14227;47.674;19.320;2022-07-22T05:04:44;27.40;29.00
26579;DHT22;14227;47.674;19.320;2022-07-22T05:12:20;27.40;28.20
26579;DHT22;14227;47.674;19.320;2022-07-22T05:14:46;27.40;28.20
26579;DHT22;14227;47.674;19.320;2022-07-22T05:17:12;27.50;28.10
26579;DHT22;14227;47.674;19.320;2022-07-22T05:19:40;27.40;28.20
26579;DHT22;14227;47.674;19.320;2022-07-22T05:22:16;27.40;28.10
26579;DHT22;14227;47.674;19.320;2022-07-22T05:24:42;27.40;28.00
26579;DHT22;14227;47.674;19.320;2022-07-22T05:27:08;27.40;28.10
26579;DHT22;14227;47.674;19.320;2022-07-22T05:29:35;27.50;28.30
26579;DHT22;14227;47.674;19.320;2022-07-22T05:32:01;27.50;28.30
26579;DHT22;14227;47.674;19.320;2022-07-22T05:34:27;27.50;28.30
26579;DHT22;14227;47.674;19.320;2022-07-22T05:36:55;27.50;27.80
26579;DHT22;14227;47.674;19.320;2022-07-22T05:39:21;27.60;28.30
26579;DHT22;14227;47.674;19.320;2022-07-22T05:41:47;27.60;28.30
26579;DHT22;14227;47.674;19.320;2022-07-22T05:44:13;27.70;28.80
26579;DHT22;14227;47.674;19.320;2022-07-22T05:46:39;27.70;28.10
26579;DHT22;14227;47.674;19.320;2022-07-22T05:49:05;27.70;28.20
26579;DHT22;14227;47.674;19.320;2022-07-22T05:51:31;27.80;27.70
26579;DHT22;14227;47.674;19.320;2022-07-22T05:53:57;27.80;27.50
26579;DHT22;14227;47.674;19.320;2022-07-22T05:56:23;27.80;27.40
26579;DHT22;14227;47.674;19.320;2022-07-22T05:58:49;27.90;27.00
26579;DHT22;14227;47.674;19.320;2022-07-22T06:01:14;27.90;26.90
26579;DHT22;14227;47.674;19.320;2022-07-22T06:03:40;27.90;26.80
26579;DHT22;14227;47.674;19.320;2022-07-22T06:06:07;27.90;26.90
26579;DHT22;14227;47.674;19.320;2022-07-22T06:08:34;28.00;26.70
26579;DHT22;14227;47.674;19.320;2022-07-22T06:11:00;28.00;26.60
26579;DHT22;14227;47.674;19.320;2022-07-22T06:13:27;28.00;26.40
26579;DHT22;14227;47.674;19.320;2022-07-22T06:15:53;28.10;26.50
26579;DHT22;14227;47.674;19.320;2022-07-22T06:18:19;28.10;26.00
26579;DHT22;14227;47.674;19.320;2022-07-22T06:20:45;28.20;26.20
26579;DHT22;14227;47.674;19.320;2022-07-22T06:23:11;28.20;26.10
26579;DHT22;14227;47.674;19.320;2022-07-22T06:25:37;28.30;25.80
26579;DHT22;14227;47.674;19.320;2022-07-22T06:28:03;28.30;25.70
26579;DHT22;14227;47.674;19.320;2022-07-22T06:30:49;28.30;25.10
26579;DHT22;14227;47.674;19.320;2022-07-22T06:48:12;28.60;24.60
26579;DHT22;14227;47.674;19.320;2022-07-22T06:57:20;28.80;24.40
26579;DHT22;14227;47.674;19.320;2022-07-22T07:06:29;29.10;24.70
26579;DHT22;14227;47.674;19.320;2022-07-22T07:08:54;29.20;24.00
26579;DHT22;14227;47.674;19.320;2022-07-22T07:11:20;29.20;24.60
26579;DHT22;14227;47.674;19.320;2022-07-22T07:13:46;29.40;24.80
26579;DHT22;14227;47.674;19.320;2022-07-22T07:16:11;29.40;24.70
26579;DHT22;14227;47.674;19.320;2022-07-22T07:18:37;29.50;24.30
26579;DHT22;14227;47.674;19.320;2022-07-22T07:21:04;29.50;24.80
26579;DHT22;14227;47.674;19.320;2022-07-22T07:23:29;29.60;23.60
26579;DHT22;14227;47.674;19.320;2022-07-22T07:25:55;29.70;23.70
26579;DHT22;14227;47.674;19.320;2022-07-22T07:28:21;29.80;23.00
26579;DHT22;14227;47.674;19.320;2022-07-22T07:30:47;29.90;23.20
26579;DHT22;14227;47.674;19.320;2022-07-22T07:33:13;29.90;24.70
26579;DHT22;14227;47.674;19.320;2022-07-22T07:35:39;30.00;25.10
26579;DHT22;14227;47.674;19.320;2022-07-22T07:38:05;30.10;23.50
26579;DHT22;14227;47.674;19.320;2022-07-22T07:40:31;30.20;23.40
26579;DHT22;14227;47.674;19.320;2022-07-22T07:42:56;30.30;24.40
26579;DHT22;14227;47.674;19.320;2022-07-22T07:45:22;30.30;25.10
26579;DHT22;14227;47.674;19.320;2022-07-22T07:47:48;30.40;23.00
26579;DHT22;14227;47.674;19.320;2022-07-22T07:50:13;30.40;24.70
26579;DHT22;14227;47.674;19.320;2022-07-22T07:52:41;30.50;25.30
26579;DHT22;14227;47.674;19.320;2022-07-22T07:55:08;30.50;25.30
26579;DHT22;14227;47.674;19.320;2022-07-22T07:57:35;30.60;23.30
26579;DHT22;14227;47.674;19.320;2022-07-22T08:02:37;30.60;23.70
26579;DHT22;14227;47.674;19.320;2022-07-22T08:05:11;30.70;24.60
26579;DHT22;14227;47.674;19.320;2022-07-22T08:07:37;30.70;25.00
26579;DHT22;14227;47.674;19.320;2022-07-22T08:10:07;30.80;24.00
26579;DHT22;14227;47.674;19.320;2022-07-22T08:12:39;30.90;23.80
26579;DHT22;14227;47.674;19.320;2022-07-22T08:15:29;30.90;24.40
26579;DHT22;14227;47.674;19.320;2022-07-22T08:18:04;30.90;22.80
26579;DHT22;14227;47.674;19.320;2022-07-22T08:23:57;31.10;24.00
26579;DHT22;14227;47.674;19.320;2022-07-22T08:26:23;31.20;22.30
26579;DHT22;14227;47.674;19.320;2022-07-22T08:28:49;31.20;23.00
26579;DHT22;14227;47.674;19.320;2022-07-22T08:31:14;31.40;24.00
26579;DHT22;14227;47.674;19.320;2022-07-22T08:33:40;31.40;23.90
26579;DHT22;14227;47.674;19.320;2022-07-22T08:36:06;31.50;23.40
26579;DHT22;14227;47.674;19.320;2022-07-22T08:38:32;31.60;23.00
26579;DHT22;14227;47.674;19.320;2022-07-22T08:40:58;31.70;22.80
26579;DHT22;14227;47.674;19.320;2022-07-22T08:43:25;31.80;22.70
26579;DHT22;14227;47.674;19.320;2022-07-22T08:45:51;31.80;21.90
26579;DHT22;14227;47.674;19.320;2022-07-22T08:48:18;31.90;21.60
26579;DHT22;14227;47.674;19.320;2022-07-22T08:50:43;32.00;22.40
26579;DHT22;14227;47.674;19.320;2022-07-22T08:53:13;32.00;21.20
26579;DHT22;14227;47.674;19.320;2022-07-22T08:55:43;32.10;21.50
26579;DHT22;14227;47.674;19.320;2022-07-22T08:58:09;32.30;19.80
26579;DHT22;14227;47.674;19.320;2022-07-22T09:00:35;32.40;19.80
26579;DHT22;14227;47.674;19.320;2022-07-22T09:03:16;32.40;20.30
26579;DHT22;14227;47.674;19.320;2022-07-22T09:05:42;32.50;19.20
26579;DHT22;14227;47.674;19.320;2022-07-22T09:08:08;32.60;19.00
26579;DHT22;14227;47.674;19.320;2022-07-22T09:10:35;32.60;20.10
26579;DHT22;14227;47.674;19.320;2022-07-22T09:13:06;32.70;19.10
26579;DHT22;14227;47.674;19.320;2022-07-22T09:15:38;32.80;19.30
26579;DHT22;14227;47.674;19.320;2022-07-22T09:18:07;32.90;19.50
26579;DHT22;14227;47.674;19.320;2022-07-22T09:20:34;33.00;18.80
26579;DHT22;14227;47.674;19.320;2022-07-22T09:23:01;33.10;19.70
26579;DHT22;14227;47.674;19.320;2022-07-22T09:27:55;33.20;21.00
26579;DHT22;14227;47.674;19.320;2022-07-22T09:30:23;33.40;19.60
26579;DHT22;14227;47.674;19.320;2022-07-22T09:32:49;33.40;19.90
26579;DHT22;14227;47.674;19.320;2022-07-22T09:35:16;33.50;19.10
26579;DHT22;14227;47.674;19.320;2022-07-22T09:40:22;33.70;21.30
26579;DHT22;14227;47.674;19.320;2022-07-22T09:42:55;33.80;20.00
26579;DHT22;14227;47.674;19.320;2022-07-22T09:45:23;33.80;21.20
26579;DHT22;14227;47.674;19.320;2022-07-22T09:47:50;33.90;20.30
26579;DHT22;14227;47.674;19.320;2022-07-22T09:50:20;34.00;19.20
26579;DHT22;14227;47.674;19.320;2022-07-22T09:52:48;34.00;19.10
26579;DHT22;14227;47.674;19.320;2022-07-22T09:55:17;34.10;19.00
26579;DHT22;14227;47.674;19.320;2022-07-22T09:57:43;34.10;20.10
26579;DHT22;14227;47.674;19.320;2022-07-22T10:00:13;34.20;19.00
26579;DHT22;14227;47.674;19.320;2022-07-22T10:03:03;34.20;18.80
26579;DHT22;14227;47.674;19.320;2022-07-22T10:05:35;34.30;18.50
26579;DHT22;14227;47.674;19.320;2022-07-22T10:08:18;34.20;19.20
26579;DHT22;14227;47.674;19.320;2022-07-22T10:11:02;34.40;18.50
26579;DHT22;14227;47.674;19.320;2022-07-22T10:13:38;34.40;20.80
26579;DHT22;14227;47.674;19.320;2022-07-22T10:16:26;34.50;19.30
26579;DHT22;14227;47.674;19.320;2022-07-22T10:18:54;34.60;19.50
26579;DHT22;14227;47.674;19.320;2022-07-22T10:21:42;34.70;18.20
26579;DHT22;14227;47.674;19.320;2022-07-22T10:24:11;34.70;19.10
26579;DHT22;14227;47.674;19.320;2022-07-22T10:27:06;34.80;18.70
26579;DHT22;14227;47.674;19.320;2022-07-22T10:29:46;34.90;19.70
26579;DHT22;14227;47.674;19.320;2022-07-22T10:38:21;35.20;19.20
26579;DHT22;14227;47.674;19.320;2022-07-22T10:44:51;35.30;19.40
26579;DHT22;14227;47.674;19.320;2022-07-22T10:53:14;35.50;19.30
26579;DHT22;14227;47.674;19.320;2022-07-22T10:56:06;35.60;18.70
26579;DHT22;14227;47.674;19.320;2022-07-22T11:01:05;35.80;18.50
26579;DHT22;14227;47.674;19.320;2022-07-22T11:03:32;35.80;18.10
26579;DHT22;14227;47.674;19.320;2022-07-22T11:08:41;36.00;17.60
26579;DHT22;14227;47.674;19.320;2022-07-22T11:11:07;36.00;17.20
26579;DHT22;14227;47.674;19.320;2022-07-22T11:13:42;36.10;17.00
26579;DHT22;14227;47.674;19.320;2022-07-22T11:16:24;36.20;17.30
26579;DHT22;14227;47.674;19.320;2022-07-22T11:18:59;36.20;16.50
26579;DHT22;14227;47.674;19.320;2022-07-22T11:21:30;36.30;16.90
26579;DHT22;14227;47.674;19.320;2022-07-22T11:23:58;36.40;18.60
26579;DHT22;14227;47.674;19.320;2022-07-22T11:26:42;36.40;17.90
26579;DHT22;14227;47.674;19.320;2022-07-22T11:29:15;36.50;18.10
26579;DHT22;14227;47.674;19.320;2022-07-22T11:31:43;36.50;18.20
26579;DHT22;14227;47.674;19.320;2022-07-22T11:34:14;36.60;17.70
26579;DHT22;14227;47.674;19.320;2022-07-22T11:36:44;36.60;17.40
26579;DHT22;14227;47.674;19.320;2022-07-22T11:39:12;36.70;17.40
26579;DHT22;14227;47.674;19.320;2022-07-22T11:41:39;36.60;16.60
26579;DHT22;14227;47.674;19.320;2022-07-22T11:44:07;36.80;15.80
26579;DHT22;14227;47.674;19.320;2022-07-22T11:46:41;36.80;15.70
26579;DHT22;14227;47.674;19.320;2022-07-22T11:49:08;36.90;16.40
26579;DHT22;14227;47.674;19.320;2022-07-22T11:51:37;37.00;17.20
26579;DHT22;14227;47.674;19.320;2022-07-22T11:54:04;37.10;16.20
26579;DHT22;14227;47.674;19.320;2022-07-22T11:56:31;37.10;16.40
26579;DHT22;14227;47.674;19.320;2022-07-22T11:58:57;37.10;16.30
26579;DHT22;14227;47.674;19.320;2022-07-22T12:01:27;37.20;17.00
26579;DHT22;14227;47.674;19.320;2022-07-22T12:04:05;37.20;16.20
26579;DHT22;14227;47.674;19.320;2022-07-22T12:06:33;37.30;15.90
26579;DHT22;14227;47.674;19.320;2022-07-22T12:09:09;37.30;15.80
26579;DHT22;14227;47.674;19.320;2022-07-22T12:11:37;37.40;15.50
26579;DHT22;14227;47.674;19.320;2022-07-22T12:14:09;37.50;15.20
26579;DHT22;14227;47.674;19.320;2022-07-22T12:16:36;37.50;15.90
26579;DHT22;14227;47.674;19.320;2022-07-22T12:19:10;37.50;14.80
26579;DHT22;14227;47.674;19.320;2022-07-22T12:21:53;37.60;16.60
26579;DHT22;14227;47.674;19.320;2022-07-22T12:24:45;37.60;16.10
26579;DHT22;14227;47.674;19.320;2022-07-22T12:27:16;37.60;14.90
26579;DHT22;14227;47.674;19.320;2022-07-22T12:29:44;37.70;17.10
26579;DHT22;14227;47.674;19.320;2022-07-22T12:32:18;37.70;15.70
26579;DHT22;14227;47.674;19.320;2022-07-22T12:34:47;37.70;17.10
26579;DHT22;14227;47.674;19.320;2022-07-22T12:37:23;37.80;17.00
26579;DHT22;14227;47.674;19.320;2022-07-22T12:40:08;37.80;15.40
26579;DHT22;14227;47.674;19.320;2022-07-22T12:42:42;37.90;15.30
26579;DHT22;14227;47.674;19.320;2022-07-22T12:45:11;37.90;16.00
26579;DHT22;14227;47.674;19.320;2022-07-22T12:47:55;38.00;15.60
26579;DHT22;14227;47.674;19.320;2022-07-22T12:50:32;38.10;16.60
26579;DHT22;14227;47.674;19.320;2022-07-22T12:53:08;38.10;15.20
26579;DHT22;14227;47.674;19.320;2022-07-22T12:55:37;38.10;14.70
26579;DHT22;14227;47.674;19.320;2022-07-22T12:58:04;38.20;15.20
26579;DHT22;14227;47.674;19.320;2022-07-22T13:00:36;38.20;15.20
26579;DHT22;14227;47.674;19.320;2022-07-22T13:03:02;38.20;15.20
26579;DHT22;14227;47.674;19.320;2022-07-22T13:05:28;38.20;14.10
26579;DHT22;14227;47.674;19.320;2022-07-22T13:07:54;38.30;14.40
26579;DHT22;14227;47.674;19.320;2022-07-22T13:10:24;38.40;14.50
26579;DHT22;14227;47.674;19.320;2022-07-22T13:12:54;38.40;14.70
26579;DHT22;14227;47.674;19.320;2022-07-22T13:15:20;38.50;13.80
26579;DHT22;14227;47.674;19.320;2022-07-22T13:17:50;38.50;14.30
26579;DHT22;14227;47.674;19.320;2022-07-22T13:20:17;38.60;13.60
26579;DHT22;14227;47.674;19.320;2022-07-22T13:22:47;38.60;13.90
26579;DHT22;14227;47.674;19.320;2022-07-22T13:25:13;38.60;14.40
26579;DHT22;14227;47.674;19.320;2022-07-22T13:27:44;38.60;14.20
26579;DHT22;14227;47.674;19.320;2022-07-22T13:30:30;38.70;14.00
26579;DHT22;14227;47.674;19.320;2022-07-22T13:32:56;38.80;14.90
26579;DHT22;14227;47.674;19.320;2022-07-22T13:35:22;38.80;13.50
26579;DHT22;14227;47.674;19.320;2022-07-22T13:37:50;38.80;13.70
26579;DHT22;14227;47.674;19.320;2022-07-22T13:40:18;38.80;15.20
26579;DHT22;14227;47.674;19.320;2022-07-22T13:42:47;38.90;13.90
26579;DHT22;14227;47.674;19.320;2022-07-22T13:45:12;38.90;13.30
26579;DHT22;14227;47.674;19.320;2022-07-22T13:47:43;38.90;13.30
26579;DHT22;14227;47.674;19.320;2022-07-22T13:54:01;39.00;13.70
26579;DHT22;14227;47.674;19.320;2022-07-22T13:56:26;39.10;13.80
26579;DHT22;14227;47.674;19.320;2022-07-22T13:58:53;39.10;13.40
26579;DHT22;14227;47.674;19.320;2022-07-22T14:01:18;39.10;15.00
26579;DHT22;14227;47.674;19.320;2022-07-22T14:03:44;39.10;14.60
26579;DHT22;14227;47.674;19.320;2022-07-22T14:06:10;39.10;14.80
26579;DHT22;14227;47.674;19.320;2022-07-22T14:08:38;39.20;14.10
26579;DHT22;14227;47.674;19.320;2022-07-22T14:11:04;39.20;13.50
26579;DHT22;14227;47.674;19.320;2022-07-22T14:13:30;39.20;13.00
26579;DHT22;14227;47.674;19.320;2022-07-22T14:15:56;39.20;12.80
26579;DHT22;14227;47.674;19.320;2022-07-22T14:18:23;39.30;13.20
26579;DHT22;14227;47.674;19.320;2022-07-22T14:20:48;39.30;13.30
26579;DHT22;14227;47.674;19.320;2022-07-22T14:23:17;39.30;14.10
26579;DHT22;14227;47.674;19.320;2022-07-22T14:25:48;39.30;14.50
26579;DHT22;14227;47.674;19.320;2022-07-22T14:28:14;39.40;13.70
26579;DHT22;14227;47.674;19.320;2022-07-22T14:30:43;39.40;13.90
26579;DHT22;14227;47.674;19.320;2022-07-22T14:33:14;39.40;14.00
26579;DHT22;14227;47.674;19.320;2022-07-22T14:35:43;39.40;13.80
26579;DHT22;14227;47.674;19.320;2022-07-22T14:38:12;39.40;13.70
26579;DHT22;14227;47.674;19.320;2022-07-22T14:40:38;39.50;13.90
26579;DHT22;14227;47.674;19.320;2022-07-22T14:43:03;39.50;13.80
26579;DHT22;14227;47.674;19.320;2022-07-22T14:45:29;39.50;13.80
26579;DHT22;14227;47.674;19.320;2022-07-22T14:47:55;39.50;13.50
26579;DHT22;14227;47.674;19.320;2022-07-22T14:50:21;39.40;13.40
26579;DHT22;14227;47.674;19.320;2022-07-22T14:52:47;39.40;14.20
26579;DHT22;14227;47.674;19.320;2022-07-22T14:55:13;39.40;13.70
26579;DHT22;14227;47.674;19.320;2022-07-22T14:57:41;39.50;13.80
26579;DHT22;14227;47.674;19.320;2022-07-22T15:00:09;39.50;15.20
26579;DHT22;14227;47.674;19.320;2022-07-22T15:02:35;39.50;14.10
26579;DHT22;14227;47.674;19.320;2022-07-22T15:05:01;39.50;13.80
26579;DHT22;14227;47.674;19.320;2022-07-22T15:07:27;39.40;14.10
26579;DHT22;14227;47.674;19.320;2022-07-22T15:09:53;39.50;14.80
26579;DHT22;14227;47.674;19.320;2022-07-22T15:12:19;39.50;13.90
26579;DHT22;14227;47.674;19.320;2022-07-22T15:14:44;39.50;14.00
26579;DHT22;14227;47.674;19.320;2022-07-22T15:17:10;39.50;14.30
26579;DHT22;14227;47.674;19.320;2022-07-22T15:19:38;39.50;14.70
26579;DHT22;14227;47.674;19.320;2022-07-22T15:22:04;39.50;14.00
26579;DHT22;14227;47.674;19.320;2022-07-22T15:24:30;39.50;14.00
26579;DHT22;14227;47.674;19.320;2022-07-22T15:26:55;39.50;14.50
26579;DHT22;14227;47.674;19.320;2022-07-22T15:29:22;39.40;14.40
26579;DHT22;14227;47.674;19.320;2022-07-22T15:31:48;39.40;14.50
26579;DHT22;14227;47.674;19.320;2022-07-22T15:34:13;39.30;14.60
26579;DHT22;14227;47.674;19.320;2022-07-22T15:36:39;39.30;14.90
26579;DHT22;14227;47.674;19.320;2022-07-22T15:39:05;39.30;15.60
26579;DHT22;14227;47.674;19.320;2022-07-22T15:41:31;39.30;16.30
26579;DHT22;14227;47.674;19.320;2022-07-22T15:43:56;39.20;16.30
26579;DHT22;14227;47.674;19.320;2022-07-22T15:46:22;39.30;15.80
26579;DHT22;14227;47.674;19.320;2022-07-22T15:48:48;39.30;15.80
26579;DHT22;14227;47.674;19.320;2022-07-22T15:51:18;39.20;15.20
26579;DHT22;14227;47.674;19.320;2022-07-22T15:53:47;39.30;15.00
26579;DHT22;14227;47.674;19.320;2022-07-22T15:56:18;39.30;15.50
26579;DHT22;14227;47.674;19.320;2022-07-22T15:58:46;39.30;15.30
26579;DHT22;14227;47.674;19.320;2022-07-22T16:01:32;39.30;15.40
26579;DHT22;14227;47.674;19.320;2022-07-22T16:03:58;39.30;15.60
26579;DHT22;14227;47.674;19.320;2022-07-22T16:06:32;39.30;15.80
26579;DHT22;14227;47.674;19.320;2022-07-22T16:08:58;39.20;15.80
26579;DHT22;14227;47.674;19.320;2022-07-22T16:11:28;39.20;16.10
26579;DHT22;14227;47.674;19.320;2022-07-22T16:13:54;39.20;16.70
26579;DHT22;14227;47.674;19.320;2022-07-22T16:16:22;39.10;16.20
26579;DHT22;14227;47.674;19.320;2022-07-22T16:18:48;39.00;16.40
26579;DHT22;14227;47.674;19.320;2022-07-22T16:21:14;38.90;17.00
26579;DHT22;14227;47.674;19.320;2022-07-22T16:23:40;38.90;16.50
26579;DHT22;14227;47.674;19.320;2022-07-22T16:26:06;38.80;16.80
26579;DHT22;14227;47.674;19.320;2022-07-22T16:28:32;38.80;17.70